sensor_id;sensor_type;location;lat;lon;timestamp;pressure;altitude;pressure_sealevel;temperature
65823;BMP180;52585;47.566;19.056;2023-04-25T00:00:45;99311.60;;;13.10
65823;BMP180;52585;47.566;19.056;2023-04-25T00:03:11;99310.80;;;13.10
65823;BMP180;52585;47.566;19.056;2023-04-25T00:05:36;99311.60;;;13.10
65823;BMP180;52585;47.566;19.056;2023-04-25T00:08:04;99300.00;;;13.08
65823;BMP180;52585;47.566;19.056;2023-04-25T00:10:30;99301.40;;;13.00
65823;BMP180;52585;47.566;19.056;2023-04-25T00:12:56;99304.20;;;13.00
65823;BMP180;52585;47.566;19.056;2023-04-25T00:15:22;99305.00;;;13.00
65823;BMP180;52585;47.566;19.056;2023-04-25T00:17:49;99308.40;;;13.00
65823;BMP180;52585;47.566;19.056;2023-04-25T00:20:18;99305.00;;;13.00
65823;BMP180;52585;47.566;19.056;2023-04-25T00:22:43;99300.20;;;13.00
65823;BMP180;52585;47.566;19.056;2023-04-25T00:25:09;99302.20;;;13.00
65823;BMP180;52585;47.566;19.056;2023-04-25T00:27:35;99302.20;;;13.00
65823;BMP180;52585;47.566;19.056;2023-04-25T00:30:01;99302.40;;;13.00
65823;BMP180;52585;47.566;19.056;2023-04-25T00:32:26;99301.00;;;12.92
65823;BMP180;52585;47.566;19.056;2023-04-25T00:34:52;99298.40;;;12.90
65823;BMP180;52585;47.566;19.056;2023-04-25T00:37:18;99303.00;;;12.90
65823;BMP180;52585;47.566;19.056;2023-04-25T00:39:43;99294.20;;;12.90
65823;BMP180;52585;47.566;19.056;2023-04-25T00:42:10;99293.80;;;12.90
65823;BMP180;52585;47.566;19.056;2023-04-25T00:44:37;99287.80;;;12.90
65823;BMP180;52585;47.566;19.056;2023-04-25T00:47:04;99285.00;;;12.90
65823;BMP180;52585;47.566;19.056;2023-04-25T00:49:30;99284.40;;;12.90
65823;BMP180;52585;47.566;19.056;2023-04-25T00:51:56;99279.80;;;12.90
65823;BMP180;52585;47.566;19.056;2023-04-25T00:54:22;99276.20;;;12.90
65823;BMP180;52585;47.566;19.056;2023-04-25T00:56:48;99272.00;;;12.90
65823;BMP180;52585;47.566;19.056;2023-04-25T00:59:15;99272.80;;;12.90
65823;BMP180;52585;47.566;19.056;2023-04-25T01:01:41;99269.60;;;12.90
65823;BMP180;52585;47.566;19.056;2023-04-25T01:04:08;99271.20;;;12.90
65823;BMP180;52585;47.566;19.056;2023-04-25T01:06:33;99272.00;;;12.82
65823;BMP180;52585;47.566;19.056;2023-04-25T01:08:59;99262.00;;;12.84
65823;BMP180;52585;47.566;19.056;2023-04-25T01:11:25;99266.00;;;12.88
65823;BMP180;52585;47.566;19.056;2023-04-25T01:13:51;99263.20;;;12.84
65823;BMP180;52585;47.566;19.056;2023-04-25T01:16:17;99258.20;;;12.86
65823;BMP180;52585;47.566;19.056;2023-04-25T01:18:45;99259.00;;;12.90
65823;BMP180;52585;47.566;19.056;2023-04-25T01:21:13;99264.60;;;12.90
65823;BMP180;52585;47.566;19.056;2023-04-25T01:23:40;99256.60;;;12.90
65823;BMP180;52585;47.566;19.056;2023-04-25T01:26:10;99254.60;;;12.84
65823;BMP180;52585;47.566;19.056;2023-04-25T01:28:36;99261.00;;;12.80
65823;BMP180;52585;47.566;19.056;2023-04-25T01:31:03;99259.20;;;12.80
65823;BMP180;52585;47.566;19.056;2023-04-25T01:33:29;99253.00;;;12.80
65823;BMP180;52585;47.566;19.056;2023-04-25T01:35:55;99254.80;;;12.80
65823;BMP180;52585;47.566;19.056;2023-04-25T01:38:21;99251.80;;;12.78
65823;BMP180;52585;47.566;19.056;2023-04-25T01:40:50;99251.20;;;12.70
65823;BMP180;52585;47.566;19.056;2023-04-25T01:43:16;99254.80;;;12.70
65823;BMP180;52585;47.566;19.056;2023-04-25T01:45:43;99247.60;;;12.70
65823;BMP180;52585;47.566;19.056;2023-04-25T01:48:13;99252.40;;;12.70
65823;BMP180;52585;47.566;19.056;2023-04-25T01:50:40;99249.80;;;12.70
65823;BMP180;52585;47.566;19.056;2023-04-25T01:53:09;99246.80;;;12.70
65823;BMP180;52585;47.566;19.056;2023-04-25T01:55:36;99246.40;;;12.70
65823;BMP180;52585;47.566;19.056;2023-04-25T01:58:03;99246.20;;;12.68
65823;BMP180;52585;47.566;19.056;2023-04-25T02:00:35;99245.20;;;12.60
65823;BMP180;52585;47.566;19.056;2023-04-25T02:03:03;99248.80;;;12.60
65823;BMP180;52585;47.566;19.056;2023-04-25T02:05:37;99243.00;;;12.60
65823;BMP180;52585;47.566;19.056;2023-04-25T02:08:09;99246.40;;;12.60
65823;BMP180;52585;47.566;19.056;2023-04-25T02:10:36;99253.20;;;12.60
65823;BMP180;52585;47.566;19.056;2023-04-25T02:13:02;99251.20;;;12.70
65823;BMP180;52585;47.566;19.056;2023-04-25T02:15:29;99248.00;;;12.70
65823;BMP180;52585;47.566;19.056;2023-04-25T02:17:54;99253.00;;;12.70
65823;BMP180;52585;47.566;19.056;2023-04-25T02:20:22;99247.20;;;12.66
65823;BMP180;52585;47.566;19.056;2023-04-25T02:22:48;99248.00;;;12.60
65823;BMP180;52585;47.566;19.056;2023-04-25T02:25:14;99243.60;;;12.60
65823;BMP180;52585;47.566;19.056;2023-04-25T02:27:42;99244.40;;;12.60
65823;BMP180;52585;47.566;19.056;2023-04-25T02:30:09;99252.00;;;12.60
65823;BMP180;52585;47.566;19.056;2023-04-25T02:32:34;99244.60;;;12.60
65823;BMP180;52585;47.566;19.056;2023-04-25T02:35:01;99248.00;;;12.60
65823;BMP180;52585;47.566;19.056;2023-04-25T02:37:31;99241.20;;;12.60
65823;BMP180;52585;47.566;19.056;2023-04-25T02:39:57;99244.20;;;12.60
65823;BMP180;52585;47.566;19.056;2023-04-25T02:42:23;99235.20;;;12.60
65823;BMP180;52585;47.566;19.056;2023-04-25T02:44:48;99240.80;;;12.60
65823;BMP180;52585;47.566;19.056;2023-04-25T02:47:14;99238.60;;;12.60
65823;BMP180;52585;47.566;19.056;2023-04-25T02:49:40;99232.80;;;12.60
65823;BMP180;52585;47.566;19.056;2023-04-25T02:52:06;99234.40;;;12.60
65823;BMP180;52585;47.566;19.056;2023-04-25T02:54:31;99238.00;;;12.62
65823;BMP180;52585;47.566;19.056;2023-04-25T02:56:57;99239.00;;;12.60
65823;BMP180;52585;47.566;19.056;2023-04-25T02:59:23;99234.40;;;12.60
65823;BMP180;52585;47.566;19.056;2023-04-25T03:01:48;99240.40;;;12.60
65823;BMP180;52585;47.566;19.056;2023-04-25T03:04:14;99238.60;;;12.58
65823;BMP180;52585;47.566;19.056;2023-04-25T03:06:41;99235.40;;;12.50
65823;BMP180;52585;47.566;19.056;2023-04-25T03:09:07;99236.20;;;12.50
65823;BMP180;52585;47.566;19.056;2023-04-25T03:11:33;99240.00;;;12.50
65823;BMP180;52585;47.566;19.056;2023-04-25T03:13:58;99236.40;;;12.50
65823;BMP180;52585;47.566;19.056;2023-04-25T03:16:24;99236.60;;;12.46
65823;BMP180;52585;47.566;19.056;2023-04-25T03:18:50;99230.40;;;12.40
65823;BMP180;52585;47.566;19.056;2023-04-25T03:21:17;99231.00;;;12.40
65823;BMP180;52585;47.566;19.056;2023-04-25T03:23:42;99231.00;;;12.40
65823;BMP180;52585;47.566;19.056;2023-04-25T03:26:08;99231.60;;;12.40
65823;BMP180;52585;47.566;19.056;2023-04-25T03:28:33;99224.20;;;12.40
65823;BMP180;52585;47.566;19.056;2023-04-25T03:30:59;99232.40;;;12.40
65823;BMP180;52585;47.566;19.056;2023-04-25T03:33:25;99225.80;;;12.30
65823;BMP180;52585;47.566;19.056;2023-04-25T03:35:51;99230.40;;;12.30
65823;BMP180;52585;47.566;19.056;2023-04-25T03:38:17;99227.20;;;12.30
65823;BMP180;52585;47.566;19.056;2023-04-25T03:40:43;99232.40;;;12.30
65823;BMP180;52585;47.566;19.056;2023-04-25T03:43:08;99236.00;;;12.30
65823;BMP180;52585;47.566;19.056;2023-04-25T03:45:34;99226.00;;;12.20
65823;BMP180;52585;47.566;19.056;2023-04-25T03:48:00;99228.80;;;12.20
65823;BMP180;52585;47.566;19.056;2023-04-25T03:50:25;99227.80;;;12.20
65823;BMP180;52585;47.566;19.056;2023-04-25T03:52:51;99227.20;;;12.20
65823;BMP180;52585;47.566;19.056;2023-04-25T03:55:17;99226.20;;;12.20
65823;BMP180;52585;47.566;19.056;2023-04-25T03:57:43;99233.80;;;12.20
65823;BMP180;52585;47.566;19.056;2023-04-25T04:00:10;99228.80;;;12.10
65823;BMP180;52585;47.566;19.056;2023-04-25T04:02:36;99229.80;;;12.10
65823;BMP180;52585;47.566;19.056;2023-04-25T04:05:04;99229.00;;;12.00
65823;BMP180;52585;47.566;19.056;2023-04-25T04:07:30;99230.80;;;12.00
65823;BMP180;52585;47.566;19.056;2023-04-25T04:09:57;99231.60;;;11.96
65823;BMP180;52585;47.566;19.056;2023-04-25T04:12:23;99237.00;;;11.90
65823;BMP180;52585;47.566;19.056;2023-04-25T04:14:49;99243.60;;;12.00
65823;BMP180;52585;47.566;19.056;2023-04-25T04:17:14;99240.40;;;11.96
65823;BMP180;52585;47.566;19.056;2023-04-25T04:19:40;99239.80;;;11.92
65823;BMP180;52585;47.566;19.056;2023-04-25T04:22:05;99245.40;;;11.90
65823;BMP180;52585;47.566;19.056;2023-04-25T04:24:33;99246.00;;;11.90
65823;BMP180;52585;47.566;19.056;2023-04-25T04:26:58;99245.40;;;11.84
65823;BMP180;52585;47.566;19.056;2023-04-25T04:29:25;99242.80;;;11.80
65823;BMP180;52585;47.566;19.056;2023-04-25T04:31:51;99245.40;;;11.80
65823;BMP180;52585;47.566;19.056;2023-04-25T04:34:18;99247.80;;;11.78
65823;BMP180;52585;47.566;19.056;2023-04-25T04:36:45;99251.60;;;11.76
65823;BMP180;52585;47.566;19.056;2023-04-25T04:39:14;99252.80;;;11.80
65823;BMP180;52585;47.566;19.056;2023-04-25T04:41:40;99248.80;;;11.70
65823;BMP180;52585;47.566;19.056;2023-04-25T04:44:05;99251.80;;;11.70
65823;BMP180;52585;47.566;19.056;2023-04-25T04:46:32;99247.20;;;11.70
65823;BMP180;52585;47.566;19.056;2023-04-25T04:49:06;99239.40;;;11.70
65823;BMP180;52585;47.566;19.056;2023-04-25T04:51:31;99250.20;;;11.64
65823;BMP180;52585;47.566;19.056;2023-04-25T04:53:58;99244.40;;;11.68
65823;BMP180;52585;47.566;19.056;2023-04-25T04:56:31;99239.00;;;11.60
65823;BMP180;52585;47.566;19.056;2023-04-25T04:58:58;99252.20;;;11.60
65823;BMP180;52585;47.566;19.056;2023-04-25T05:01:25;99245.20;;;11.68
65823;BMP180;52585;47.566;19.056;2023-04-25T05:03:51;99258.40;;;11.60
65823;BMP180;52585;47.566;19.056;2023-04-25T05:06:19;99256.40;;;11.60
65823;BMP180;52585;47.566;19.056;2023-04-25T05:08:45;99266.60;;;11.60
65823;BMP180;52585;47.566;19.056;2023-04-25T05:11:10;99265.20;;;11.50
65823;BMP180;52585;47.566;19.056;2023-04-25T05:13:37;99270.60;;;11.50
65823;BMP180;52585;47.566;19.056;2023-04-25T05:16:03;99268.80;;;11.50
65823;BMP180;52585;47.566;19.056;2023-04-25T05:18:29;99267.00;;;11.50
65823;BMP180;52585;47.566;19.056;2023-04-25T05:20:55;99272.40;;;11.46
65823;BMP180;52585;47.566;19.056;2023-04-25T05:23:21;99279.80;;;11.40
65823;BMP180;52585;47.566;19.056;2023-04-25T05:25:46;99277.60;;;11.40
65823;BMP180;52585;47.566;19.056;2023-04-25T05:28:13;99275.00;;;11.40
65823;BMP180;52585;47.566;19.056;2023-04-25T05:30:39;99268.60;;;11.40
65823;BMP180;52585;47.566;19.056;2023-04-25T05:33:05;99271.20;;;11.40
65823;BMP180;52585;47.566;19.056;2023-04-25T05:35:31;99269.60;;;11.40
65823;BMP180;52585;47.566;19.056;2023-04-25T05:37:56;99265.60;;;11.40
65823;BMP180;52585;47.566;19.056;2023-04-25T05:40:22;99277.20;;;11.34
65823;BMP180;52585;47.566;19.056;2023-04-25T05:42:48;99272.40;;;11.32
65823;BMP180;52585;47.566;19.056;2023-04-25T05:45:13;99273.80;;;11.34
65823;BMP180;52585;47.566;19.056;2023-04-25T05:47:39;99270.80;;;11.30
65823;BMP180;52585;47.566;19.056;2023-04-25T05:50:06;99267.60;;;11.30
65823;BMP180;52585;47.566;19.056;2023-04-25T05:52:32;99273.60;;;11.22
65823;BMP180;52585;47.566;19.056;2023-04-25T05:54:57;99276.20;;;11.20
65823;BMP180;52585;47.566;19.056;2023-04-25T05:57:25;99280.40;;;11.20
65823;BMP180;52585;47.566;19.056;2023-04-25T05:59:52;99283.80;;;11.10
65823;BMP180;52585;47.566;19.056;2023-04-25T06:02:19;99284.40;;;11.10
65823;BMP180;52585;47.566;19.056;2023-04-25T06:04:46;99282.80;;;11.10
65823;BMP180;52585;47.566;19.056;2023-04-25T06:07:12;99285.40;;;11.10
65823;BMP180;52585;47.566;19.056;2023-04-25T06:09:38;99281.00;;;11.10
65823;BMP180;52585;47.566;19.056;2023-04-25T06:12:07;99285.00;;;11.10
65823;BMP180;52585;47.566;19.056;2023-04-25T06:14:33;99288.20;;;11.10
65823;BMP180;52585;47.566;19.056;2023-04-25T06:16:59;99289.40;;;11.10
65823;BMP180;52585;47.566;19.056;2023-04-25T06:19:25;99287.20;;;11.10
65823;BMP180;52585;47.566;19.056;2023-04-25T06:21:50;99292.80;;;11.10
65823;BMP180;52585;47.566;19.056;2023-04-25T06:24:16;99285.80;;;11.10
65823;BMP180;52585;47.566;19.056;2023-04-25T06:26:42;99284.80;;;11.10
65823;BMP180;52585;47.566;19.056;2023-04-25T06:29:07;99288.60;;;11.10
65823;BMP180;52585;47.566;19.056;2023-04-25T06:31:34;99287.60;;;11.10
65823;BMP180;52585;47.566;19.056;2023-04-25T06:34:00;99292.40;;;11.10
65823;BMP180;52585;47.566;19.056;2023-04-25T06:36:26;99292.00;;;11.10
65823;BMP180;52585;47.566;19.056;2023-04-25T06:38:53;99290.80;;;11.10
65823;BMP180;52585;47.566;19.056;2023-04-25T06:41:20;99291.20;;;11.10
65823;BMP180;52585;47.566;19.056;2023-04-25T06:43:46;99291.40;;;11.10
65823;BMP180;52585;47.566;19.056;2023-04-25T06:46:12;99291.20;;;11.10
65823;BMP180;52585;47.566;19.056;2023-04-25T06:48:38;99291.60;;;11.10
65823;BMP180;52585;47.566;19.056;2023-04-25T06:51:04;99295.80;;;11.20
65823;BMP180;52585;47.566;19.056;2023-04-25T06:53:29;99292.40;;;11.20
65823;BMP180;52585;47.566;19.056;2023-04-25T06:55:55;99292.20;;;11.20
65823;BMP180;52585;47.566;19.056;2023-04-25T06:58:21;99295.40;;;11.20
65823;BMP180;52585;47.566;19.056;2023-04-25T07:00:46;99296.40;;;11.26
65823;BMP180;52585;47.566;19.056;2023-04-25T07:03:12;99291.80;;;11.30
65823;BMP180;52585;47.566;19.056;2023-04-25T07:05:38;99292.20;;;11.40
65823;BMP180;52585;47.566;19.056;2023-04-25T07:08:03;99291.00;;;11.40
65823;BMP180;52585;47.566;19.056;2023-04-25T07:10:29;99291.20;;;11.40
65823;BMP180;52585;47.566;19.056;2023-04-25T07:12:55;99299.60;;;11.42
65823;BMP180;52585;47.566;19.056;2023-04-25T07:15:21;99296.00;;;11.50
65823;BMP180;52585;47.566;19.056;2023-04-25T07:17:47;99295.00;;;11.50
65823;BMP180;52585;47.566;19.056;2023-04-25T07:20:12;99292.60;;;11.50
65823;BMP180;52585;47.566;19.056;2023-04-25T07:22:38;99298.00;;;11.60
65823;BMP180;52585;47.566;19.056;2023-04-25T07:25:05;99297.40;;;11.60
65823;BMP180;52585;47.566;19.056;2023-04-25T07:27:31;99289.80;;;11.68
65823;BMP180;52585;47.566;19.056;2023-04-25T07:29:57;99294.80;;;11.70
65823;BMP180;52585;47.566;19.056;2023-04-25T07:32:23;99297.20;;;11.80
65823;BMP180;52585;47.566;19.056;2023-04-25T07:34:49;99298.60;;;11.90
65823;BMP180;52585;47.566;19.056;2023-04-25T07:37:15;99296.00;;;11.90
65823;BMP180;52585;47.566;19.056;2023-04-25T07:39:41;99297.80;;;11.94
65823;BMP180;52585;47.566;19.056;2023-04-25T07:42:07;99297.20;;;12.00
65823;BMP180;52585;47.566;19.056;2023-04-25T07:44:35;99295.60;;;12.00
65823;BMP180;52585;47.566;19.056;2023-04-25T07:47:09;99304.20;;;12.00
65823;BMP180;52585;47.566;19.056;2023-04-25T07:49:36;99309.40;;;12.00
65823;BMP180;52585;47.566;19.056;2023-04-25T07:52:04;99302.60;;;12.10
65823;BMP180;52585;47.566;19.056;2023-04-25T07:54:33;99296.20;;;12.10
65823;BMP180;52585;47.566;19.056;2023-04-25T07:56:59;99296.20;;;12.12
65823;BMP180;52585;47.566;19.056;2023-04-25T07:59:25;99298.60;;;12.20
65823;BMP180;52585;47.566;19.056;2023-04-25T08:01:50;99301.80;;;12.30
65823;BMP180;52585;47.566;19.056;2023-04-25T08:04:16;99297.80;;;12.30
65823;BMP180;52585;47.566;19.056;2023-04-25T08:06:42;99294.40;;;12.40
65823;BMP180;52585;47.566;19.056;2023-04-25T08:09:09;99297.00;;;12.50
65823;BMP180;52585;47.566;19.056;2023-04-25T08:11:36;99295.80;;;12.60
65823;BMP180;52585;47.566;19.056;2023-04-25T08:14:02;99304.00;;;12.68
65823;BMP180;52585;47.566;19.056;2023-04-25T08:16:28;99306.40;;;12.70
65823;BMP180;52585;47.566;19.056;2023-04-25T08:18:54;99300.20;;;12.80
65823;BMP180;52585;47.566;19.056;2023-04-25T08:21:20;99307.00;;;12.86
65823;BMP180;52585;47.566;19.056;2023-04-25T08:23:46;99302.20;;;12.90
65823;BMP180;52585;47.566;19.056;2023-04-25T08:26:12;99299.40;;;12.96
65823;BMP180;52585;47.566;19.056;2023-04-25T08:28:39;99302.20;;;13.00
65823;BMP180;52585;47.566;19.056;2023-04-25T08:31:05;99298.00;;;13.00
65823;BMP180;52585;47.566;19.056;2023-04-25T08:33:30;99305.40;;;13.02
65823;BMP180;52585;47.566;19.056;2023-04-25T08:35:57;99301.60;;;13.08
65823;BMP180;52585;47.566;19.056;2023-04-25T08:38:23;99300.20;;;13.10
65823;BMP180;52585;47.566;19.056;2023-04-25T08:40:50;99312.00;;;13.10
65823;BMP180;52585;47.566;19.056;2023-04-25T08:43:20;99315.00;;;13.14
65823;BMP180;52585;47.566;19.056;2023-04-25T08:45:46;99321.40;;;13.20
65823;BMP180;52585;47.566;19.056;2023-04-25T08:48:15;99320.00;;;13.20
65823;BMP180;52585;47.566;19.056;2023-04-25T08:50:52;99325.60;;;13.20
65823;BMP180;52585;47.566;19.056;2023-04-25T08:53:32;99326.40;;;13.20
65823;BMP180;52585;47.566;19.056;2023-04-25T08:56:00;99328.20;;;13.10
65823;BMP180;52585;47.566;19.056;2023-04-25T08:58:30;99329.40;;;13.10
65823;BMP180;52585;47.566;19.056;2023-04-25T09:00:56;99328.60;;;13.10
65823;BMP180;52585;47.566;19.056;2023-04-25T09:03:23;99328.80;;;13.10
65823;BMP180;52585;47.566;19.056;2023-04-25T09:05:51;99329.40;;;13.10
65823;BMP180;52585;47.566;19.056;2023-04-25T09:08:16;99327.00;;;13.10
65823;BMP180;52585;47.566;19.056;2023-04-25T09:10:42;99332.20;;;13.14
65823;BMP180;52585;47.566;19.056;2023-04-25T09:13:12;99329.40;;;13.20
65823;BMP180;52585;47.566;19.056;2023-04-25T09:16:06;99332.80;;;13.20
65823;BMP180;52585;47.566;19.056;2023-04-25T09:18:35;99338.00;;;13.20
65823;BMP180;52585;47.566;19.056;2023-04-25T09:21:10;99343.20;;;13.30
65823;BMP180;52585;47.566;19.056;2023-04-25T09:23:47;99337.00;;;13.30
65823;BMP180;52585;47.566;19.056;2023-04-25T09:26:20;99336.60;;;13.30
65823;BMP180;52585;47.566;19.056;2023-04-25T09:28:46;99332.80;;;13.30
65823;BMP180;52585;47.566;19.056;2023-04-25T09:31:22;99329.00;;;13.30
65823;BMP180;52585;47.566;19.056;2023-04-25T09:33:49;99334.00;;;13.40
65823;BMP180;52585;47.566;19.056;2023-04-25T09:36:15;99330.20;;;13.40
65823;BMP180;52585;47.566;19.056;2023-04-25T09:38:43;99328.60;;;13.50
65823;BMP180;52585;47.566;19.056;2023-04-25T09:41:10;99330.80;;;13.60
65823;BMP180;52585;47.566;19.056;2023-04-25T09:43:37;99332.00;;;13.70
65823;BMP180;52585;47.566;19.056;2023-04-25T09:46:09;99335.20;;;13.76
65823;BMP180;52585;47.566;19.056;2023-04-25T09:48:36;99337.60;;;13.80
65823;BMP180;52585;47.566;19.056;2023-04-25T09:51:15;99332.00;;;13.90
65823;BMP180;52585;47.566;19.056;2023-04-25T09:53:43;99331.00;;;13.90
65823;BMP180;52585;47.566;19.056;2023-04-25T09:56:12;99329.40;;;13.94
65823;BMP180;52585;47.566;19.056;2023-04-25T09:58:42;99331.80;;;13.98
65823;BMP180;52585;47.566;19.056;2023-04-25T10:01:11;99327.80;;;13.94
65823;BMP180;52585;47.566;19.056;2023-04-25T10:03:39;99339.00;;;14.00
65823;BMP180;52585;47.566;19.056;2023-04-25T10:06:12;99327.00;;;14.00
65823;BMP180;52585;47.566;19.056;2023-04-25T10:08:38;99327.40;;;14.00
65823;BMP180;52585;47.566;19.056;2023-04-25T10:11:08;99322.40;;;14.00
65823;BMP180;52585;47.566;19.056;2023-04-25T10:13:35;99332.00;;;14.00
65823;BMP180;52585;47.566;19.056;2023-04-25T10:16:04;99330.60;;;14.00
65823;BMP180;52585;47.566;19.056;2023-04-25T10:18:31;99332.40;;;14.00
65823;BMP180;52585;47.566;19.056;2023-04-25T10:21:04;99336.00;;;14.00
65823;BMP180;52585;47.566;19.056;2023-04-25T10:23:31;99331.40;;;14.00
65823;BMP180;52585;47.566;19.056;2023-04-25T10:26:00;99331.00;;;14.00
65823;BMP180;52585;47.566;19.056;2023-04-25T10:28:26;99332.00;;;14.00
65823;BMP180;52585;47.566;19.056;2023-04-25T10:31:02;99327.00;;;14.00
65823;BMP180;52585;47.566;19.056;2023-04-25T10:33:40;99328.80;;;14.00
65823;BMP180;52585;47.566;19.056;2023-04-25T10:36:18;99327.40;;;14.04
65823;BMP180;52585;47.566;19.056;2023-04-25T10:38:45;99327.60;;;14.08
65823;BMP180;52585;47.566;19.056;2023-04-25T10:41:13;99321.20;;;14.00
65823;BMP180;52585;47.566;19.056;2023-04-25T10:43:45;99325.60;;;14.06
65823;BMP180;52585;47.566;19.056;2023-04-25T10:46:29;99328.80;;;14.10
65823;BMP180;52585;47.566;19.056;2023-04-25T10:48:59;99333.00;;;14.10
65823;BMP180;52585;47.566;19.056;2023-04-25T10:51:28;99335.40;;;14.10
65823;BMP180;52585;47.566;19.056;2023-04-25T10:54:06;99335.00;;;14.10
65823;BMP180;52585;47.566;19.056;2023-04-25T10:56:37;99337.60;;;14.20
65823;BMP180;52585;47.566;19.056;2023-04-25T10:59:18;99331.80;;;14.20
65823;BMP180;52585;47.566;19.056;2023-04-25T11:01:51;99330.00;;;14.22
65823;BMP180;52585;47.566;19.056;2023-04-25T11:04:32;99336.20;;;14.30
65823;BMP180;52585;47.566;19.056;2023-04-25T11:07:34;99338.00;;;14.40
65823;BMP180;52585;47.566;19.056;2023-04-25T11:10:06;99340.60;;;14.40
65823;BMP180;52585;47.566;19.056;2023-04-25T11:12:33;99343.40;;;14.40
65823;BMP180;52585;47.566;19.056;2023-04-25T11:15:07;99344.20;;;14.40
65823;BMP180;52585;47.566;19.056;2023-04-25T11:17:33;99350.00;;;14.46
65823;BMP180;52585;47.566;19.056;2023-04-25T11:20:00;99347.60;;;14.50
65823;BMP180;52585;47.566;19.056;2023-04-25T11:22:27;99352.60;;;14.50
65823;BMP180;52585;47.566;19.056;2023-04-25T11:24:54;99352.40;;;14.50
65823;BMP180;52585;47.566;19.056;2023-04-25T11:27:21;99361.20;;;14.58
65823;BMP180;52585;47.566;19.056;2023-04-25T11:29:46;99358.00;;;14.60
65823;BMP180;52585;47.566;19.056;2023-04-25T11:32:17;99361.20;;;14.60
65823;BMP180;52585;47.566;19.056;2023-04-25T11:34:44;99361.00;;;14.70
65823;BMP180;52585;47.566;19.056;2023-04-25T11:37:12;99359.40;;;14.70
65823;BMP180;52585;47.566;19.056;2023-04-25T11:39:44;99366.60;;;14.80
65823;BMP180;52585;47.566;19.056;2023-04-25T11:42:11;99360.80;;;14.76
65823;BMP180;52585;47.566;19.056;2023-04-25T11:44:39;99364.60;;;14.70
65823;BMP180;52585;47.566;19.056;2023-04-25T11:47:06;99369.00;;;14.70
65823;BMP180;52585;47.566;19.056;2023-04-25T11:49:31;99367.80;;;14.70
65823;BMP180;52585;47.566;19.056;2023-04-25T11:51:57;99372.00;;;14.70
65823;BMP180;52585;47.566;19.056;2023-04-25T11:54:23;99371.20;;;14.70
65823;BMP180;52585;47.566;19.056;2023-04-25T11:56:48;99374.60;;;14.70
65823;BMP180;52585;47.566;19.056;2023-04-25T11:59:14;99381.80;;;14.70
65823;BMP180;52585;47.566;19.056;2023-04-25T12:01:50;99384.40;;;14.70
65823;BMP180;52585;47.566;19.056;2023-04-25T12:04:19;99379.60;;;14.70
65823;BMP180;52585;47.566;19.056;2023-04-25T12:06:48;99383.40;;;14.62
65823;BMP180;52585;47.566;19.056;2023-04-25T12:09:17;99393.00;;;14.60
65823;BMP180;52585;47.566;19.056;2023-04-25T12:11:59;99400.80;;;14.60
65823;BMP180;52585;47.566;19.056;2023-04-25T12:14:32;99396.20;;;14.60
65823;BMP180;52585;47.566;19.056;2023-04-25T12:17:02;99388.60;;;14.60
65823;BMP180;52585;47.566;19.056;2023-04-25T12:19:36;99384.40;;;14.62
65823;BMP180;52585;47.566;19.056;2023-04-25T12:22:21;99389.40;;;14.70
65823;BMP180;52585;47.566;19.056;2023-04-25T12:24:48;99387.20;;;14.70
65823;BMP180;52585;47.566;19.056;2023-04-25T12:27:16;99382.80;;;14.76
65823;BMP180;52585;47.566;19.056;2023-04-25T12:29:55;99376.60;;;14.80
65823;BMP180;52585;47.566;19.056;2023-04-25T12:32:22;99384.00;;;14.88
65823;BMP180;52585;47.566;19.056;2023-04-25T12:34:48;99374.40;;;14.90
65823;BMP180;52585;47.566;19.056;2023-04-25T12:37:14;99374.80;;;14.94
65823;BMP180;52585;47.566;19.056;2023-04-25T12:39:40;99370.60;;;15.00
65823;BMP180;52585;47.566;19.056;2023-04-25T12:42:05;99370.00;;;15.00
65823;BMP180;52585;47.566;19.056;2023-04-25T12:44:34;99367.80;;;15.02
65823;BMP180;52585;47.566;19.056;2023-04-25T12:47:00;99363.40;;;15.10
65823;BMP180;52585;47.566;19.056;2023-04-25T12:49:25;99359.40;;;15.04
65823;BMP180;52585;47.566;19.056;2023-04-25T12:51:51;99352.80;;;15.10
65823;BMP180;52585;47.566;19.056;2023-04-25T12:54:17;99354.80;;;15.10
65823;BMP180;52585;47.566;19.056;2023-04-25T12:56:43;99355.80;;;15.10
65823;BMP180;52585;47.566;19.056;2023-04-25T12:59:08;99353.80;;;15.12
65823;BMP180;52585;47.566;19.056;2023-04-25T13:01:35;99348.20;;;15.18
65823;BMP180;52585;47.566;19.056;2023-04-25T13:04:00;99354.20;;;15.20
65823;BMP180;52585;47.566;19.056;2023-04-25T13:06:26;99354.60;;;15.20
65823;BMP180;52585;47.566;19.056;2023-04-25T13:08:52;99352.40;;;15.28
65823;BMP180;52585;47.566;19.056;2023-04-25T13:11:18;99350.00;;;15.30
65823;BMP180;52585;47.566;19.056;2023-04-25T13:13:44;99350.00;;;15.30
65823;BMP180;52585;47.566;19.056;2023-04-25T13:16:10;99347.20;;;15.30
65823;BMP180;52585;47.566;19.056;2023-04-25T13:18:36;99350.80;;;15.40
65823;BMP180;52585;47.566;19.056;2023-04-25T13:21:03;99349.20;;;15.40
65823;BMP180;52585;47.566;19.056;2023-04-25T13:23:30;99348.60;;;15.44
65823;BMP180;52585;47.566;19.056;2023-04-25T13:25:56;99349.00;;;15.50
65823;BMP180;52585;47.566;19.056;2023-04-25T13:28:25;99343.20;;;15.50
65823;BMP180;52585;47.566;19.056;2023-04-25T13:30:51;99335.80;;;15.50
65823;BMP180;52585;47.566;19.056;2023-04-25T13:33:18;99331.60;;;15.50
65823;BMP180;52585;47.566;19.056;2023-04-25T13:35:44;99336.20;;;15.42
65823;BMP180;52585;47.566;19.056;2023-04-25T13:38:13;99337.40;;;15.40
65823;BMP180;52585;47.566;19.056;2023-04-25T13:40:39;99337.80;;;15.40
65823;BMP180;52585;47.566;19.056;2023-04-25T13:43:05;99336.40;;;15.42
65823;BMP180;52585;47.566;19.056;2023-04-25T13:45:32;99339.20;;;15.48
65823;BMP180;52585;47.566;19.056;2023-04-25T13:47:57;99335.40;;;15.50
65823;BMP180;52585;47.566;19.056;2023-04-25T13:50:23;99338.60;;;15.50
65823;BMP180;52585;47.566;19.056;2023-04-25T13:52:49;99332.00;;;15.50
65823;BMP180;52585;47.566;19.056;2023-04-25T13:55:15;99337.20;;;15.50
65823;BMP180;52585;47.566;19.056;2023-04-25T13:57:40;99333.00;;;15.52